sensor_id;sensor_type;location;lat;lon;timestamp;P1;durP1;ratioP1;P2;durP2;ratioP2
79583;SDS011;69053;57.338;18.700;2024-03-06T00:01:09;5.45;;;2.85;;
79583;SDS011;69053;57.338;18.700;2024-03-06T00:04:10;8.77;;;2.35;;
79583;SDS011;69053;57.338;18.700;2024-03-06T00:07:10;7.00;;;2.50;;
79583;SDS011;69053;57.338;18.700;2024-03-06T00:10:10;3.50;;;1.70;;
79583;SDS011;69053;57.338;18.700;2024-03-06T00:13:11;6.47;;;1.92;;
79583;SDS011;69053;57.338;18.700;2024-03-06T00:16:12;6.13;;;2.20;;
79583;SDS011;69053;57.338;18.700;2024-03-06T00:19:12;4.40;;;2.30;;
79583;SDS011;69053;57.338;18.700;2024-03-06T00:22:13;7.97;;;2.67;;
79583;SDS011;69053;57.338;18.700;2024-03-06T00:25:14;4.20;;;1.98;;
79583;SDS011;69053;57.338;18.700;2024-03-06T00:28:14;6.93;;;2.08;;
79583;SDS011;69053;57.338;18.700;2024-03-06T00:31:14;5.82;;;2.28;;
79583;SDS011;69053;57.338;18.700;2024-03-06T00:34:15;4.80;;;2.13;;
79583;SDS011;69053;57.338;18.700;2024-03-06T00:37:15;9.10;;;2.60;;
79583;SDS011;69053;57.338;18.700;2024-03-06T00:40:16;7.00;;;2.95;;
79583;SDS011;69053;57.338;18.700;2024-03-06T00:43:16;4.97;;;1.95;;
79583;SDS011;69053;57.338;18.700;2024-03-06T00:46:17;5.07;;;1.88;;
79583;SDS011;69053;57.338;18.700;2024-03-06T00:49:17;6.70;;;2.10;;
79583;SDS011;69053;57.338;18.700;2024-03-06T00:52:18;6.90;;;2.42;;
79583;SDS011;69053;57.338;18.700;2024-03-06T00:55:18;4.65;;;1.80;;
79583;SDS011;69053;57.338;18.700;2024-03-06T00:58:19;4.68;;;1.92;;
79583;SDS011;69053;57.338;18.700;2024-03-06T01:01:19;4.32;;;1.95;;
79583;SDS011;69053;57.338;18.700;2024-03-06T01:04:20;4.97;;;2.20;;
79583;SDS011;69053;57.338;18.700;2024-03-06T01:07:20;5.05;;;2.20;;
79583;SDS011;69053;57.338;18.700;2024-03-06T01:10:21;5.07;;;1.70;;
79583;SDS011;69053;57.338;18.700;2024-03-06T01:13:21;4.90;;;2.10;;
79583;SDS011;69053;57.338;18.700;2024-03-06T01:16:21;5.35;;;2.75;;
79583;SDS011;69053;57.338;18.700;2024-03-06T01:19:22;4.57;;;1.65;;
79583;SDS011;69053;57.338;18.700;2024-03-06T01:22:23;5.00;;;1.80;;
79583;SDS011;69053;57.338;18.700;2024-03-06T01:25:24;7.22;;;2.70;;
79583;SDS011;69053;57.338;18.700;2024-03-06T01:28:24;5.57;;;2.00;;
79583;SDS011;69053;57.338;18.700;2024-03-06T01:31:25;4.45;;;2.17;;
79583;SDS011;69053;57.338;18.700;2024-03-06T01:34:25;5.68;;;2.30;;
79583;SDS011;69053;57.338;18.700;2024-03-06T01:37:26;4.25;;;1.98;;
79583;SDS011;69053;57.338;18.700;2024-03-06T01:40:26;6.68;;;1.88;;
79583;SDS011;69053;57.338;18.700;2024-03-06T01:43:27;4.82;;;2.10;;
79583;SDS011;69053;57.338;18.700;2024-03-06T01:46:28;4.93;;;2.20;;
79583;SDS011;69053;57.338;18.700;2024-03-06T01:49:28;4.72;;;2.05;;
79583;SDS011;69053;57.338;18.700;2024-03-06T01:52:28;8.75;;;2.45;;
79583;SDS011;69053;57.338;18.700;2024-03-06T01:55:29;7.68;;;2.25;;
79583;SDS011;69053;57.338;18.700;2024-03-06T01:58:30;7.72;;;2.40;;
79583;SDS011;69053;57.338;18.700;2024-03-06T02:01:31;5.43;;;1.80;;
79583;SDS011;69053;57.338;18.700;2024-03-06T02:04:32;9.07;;;2.70;;
79583;SDS011;69053;57.338;18.700;2024-03-06T02:07:33;3.75;;;2.28;;
79583;SDS011;69053;57.338;18.700;2024-03-06T02:10:34;4.93;;;2.17;;
79583;SDS011;69053;57.338;18.700;2024-03-06T02:13:35;6.88;;;1.88;;
79583;SDS011;69053;57.338;18.700;2024-03-06T02:16:38;5.05;;;1.70;;
79583;SDS011;69053;57.338;18.700;2024-03-06T02:19:39;4.82;;;1.95;;
79583;SDS011;69053;57.338;18.700;2024-03-06T02:22:41;4.47;;;1.77;;
79583;SDS011;69053;57.338;18.700;2024-03-06T02:25:41;5.40;;;2.20;;
79583;SDS011;69053;57.338;18.700;2024-03-06T02:28:51;5.25;;;1.85;;
79583;SDS011;69053;57.338;18.700;2024-03-06T02:31:53;6.07;;;2.22;;
79583;SDS011;69053;57.338;18.700;2024-03-06T02:34:53;5.18;;;1.80;;
79583;SDS011;69053;57.338;18.700;2024-03-06T02:37:54;3.50;;;2.15;;
79583;SDS011;69053;57.338;18.700;2024-03-06T02:40:56;5.18;;;1.77;;
79583;SDS011;69053;57.338;18.700;2024-03-06T02:43:57;3.83;;;1.92;;
79583;SDS011;69053;57.338;18.700;2024-03-06T02:46:57;5.93;;;1.73;;
79583;SDS011;69053;57.338;18.700;2024-03-06T02:49:58;4.60;;;2.05;;
79583;SDS011;69053;57.338;18.700;2024-03-06T02:52:58;6.15;;;1.73;;
79583;SDS011;69053;57.338;18.700;2024-03-06T02:55:58;4.18;;;1.98;;
79583;SDS011;69053;57.338;18.700;2024-03-06T02:58:59;5.35;;;2.50;;
79583;SDS011;69053;57.338;18.700;2024-03-06T03:02:02;4.82;;;2.08;;
79583;SDS011;69053;57.338;18.700;2024-03-06T03:05:03;3.63;;;1.83;;
79583;SDS011;69053;57.338;18.700;2024-03-06T03:08:05;4.97;;;1.80;;
79583;SDS011;69053;57.338;18.700;2024-03-06T03:11:06;3.22;;;1.50;;
79583;SDS011;69053;57.338;18.700;2024-03-06T03:14:08;5.13;;;2.00;;
79583;SDS011;69053;57.338;18.700;2024-03-06T03:17:08;3.20;;;1.77;;
79583;SDS011;69053;57.338;18.700;2024-03-06T03:20:09;4.68;;;2.20;;
79583;SDS011;69053;57.338;18.700;2024-03-06T03:23:10;6.40;;;2.85;;
79583;SDS011;69053;57.338;18.700;2024-03-06T03:26:14;3.45;;;2.05;;
79583;SDS011;69053;57.338;18.700;2024-03-06T03:29:14;7.95;;;2.53;;
79583;SDS011;69053;57.338;18.700;2024-03-06T03:32:15;3.65;;;1.52;;
79583;SDS011;69053;57.338;18.700;2024-03-06T03:35:16;3.00;;;1.88;;
79583;SDS011;69053;57.338;18.700;2024-03-06T03:38:20;5.03;;;1.92;;
79583;SDS011;69053;57.338;18.700;2024-03-06T03:41:20;3.05;;;1.70;;
79583;SDS011;69053;57.338;18.700;2024-03-06T03:44:20;4.07;;;1.55;;
79583;SDS011;69053;57.338;18.700;2024-03-06T03:47:21;3.83;;;1.90;;
79583;SDS011;69053;57.338;18.700;2024-03-06T03:50:22;4.47;;;1.70;;
79583;SDS011;69053;57.338;18.700;2024-03-06T03:53:22;2.92;;;1.58;;
79583;SDS011;69053;57.338;18.700;2024-03-06T03:56:23;4.05;;;1.58;;
79583;SDS011;69053;57.338;18.700;2024-03-06T03:59:23;3.47;;;1.52;;
79583;SDS011;69053;57.338;18.700;2024-03-06T04:02:23;5.97;;;1.75;;
79583;SDS011;69053;57.338;18.700;2024-03-06T04:05:24;6.07;;;1.88;;
79583;SDS011;69053;57.338;18.700;2024-03-06T04:08:25;4.40;;;1.77;;
79583;SDS011;69053;57.338;18.700;2024-03-06T04:11:26;4.50;;;1.70;;
79583;SDS011;69053;57.338;18.700;2024-03-06T04:14:26;3.35;;;1.83;;
79583;SDS011;69053;57.338;18.700;2024-03-06T04:17:26;9.50;;;2.08;;
79583;SDS011;69053;57.338;18.700;2024-03-06T04:20:27;3.03;;;1.30;;
79583;SDS011;69053;57.338;18.700;2024-03-06T04:23:27;3.00;;;1.70;;
79583;SDS011;69053;57.338;18.700;2024-03-06T04:26:28;3.17;;;1.17;;
79583;SDS011;69053;57.338;18.700;2024-03-06T04:29:28;3.78;;;1.60;;
79583;SDS011;69053;57.338;18.700;2024-03-06T04:32:29;5.22;;;1.65;;
79583;SDS011;69053;57.338;18.700;2024-03-06T04:35:29;3.95;;;1.65;;
79583;SDS011;69053;57.338;18.700;2024-03-06T04:38:29;2.75;;;1.65;;
79583;SDS011;69053;57.338;18.700;2024-03-06T04:41:30;4.70;;;1.98;;
79583;SDS011;69053;57.338;18.700;2024-03-06T04:44:33;6.32;;;1.70;;
79583;SDS011;69053;57.338;18.700;2024-03-06T04:47:34;8.18;;;2.22;;
79583;SDS011;69053;57.338;18.700;2024-03-06T04:50:34;4.53;;;1.65;;
79583;SDS011;69053;57.338;18.700;2024-03-06T04:53:35;4.05;;;2.00;;
79583;SDS011;69053;57.338;18.700;2024-03-06T04:56:36;2.88;;;1.40;;
79583;SDS011;69053;57.338;18.700;2024-03-06T04:59:36;3.53;;;1.30;;
79583;SDS011;69053;57.338;18.700;2024-03-06T05:02:36;4.55;;;1.50;;
79583;SDS011;69053;57.338;18.700;2024-03-06T05:05:37;5.15;;;1.90;;
79583;SDS011;69053;57.338;18.700;2024-03-06T05:08:39;4.00;;;1.30;;
79583;SDS011;69053;57.338;18.700;2024-03-06T05:11:39;3.08;;;1.35;;
79583;SDS011;69053;57.338;18.700;2024-03-06T05:14:40;4.63;;;1.30;;
79583;SDS011;69053;57.338;18.700;2024-03-06T05:17:40;2.30;;;0.90;;
79583;SDS011;69053;57.338;18.700;2024-03-06T05:20:41;5.20;;;1.55;;
79583;SDS011;69053;57.338;18.700;2024-03-06T05:23:41;3.08;;;1.30;;
79583;SDS011;69053;57.338;18.700;2024-03-06T05:26:41;4.10;;;1.27;;
79583;SDS011;69053;57.338;18.700;2024-03-06T05:29:42;4.35;;;1.38;;
79583;SDS011;69053;57.338;18.700;2024-03-06T05:32:43;4.70;;;1.73;;
79583;SDS011;69053;57.338;18.700;2024-03-06T05:35:43;3.95;;;1.25;;
79583;SDS011;69053;57.338;18.700;2024-03-06T05:38:44;2.80;;;1.30;;
79583;SDS011;69053;57.338;18.700;2024-03-06T05:41:45;5.07;;;1.23;;
79583;SDS011;69053;57.338;18.700;2024-03-06T05:44:46;2.60;;;1.58;;
79583;SDS011;69053;57.338;18.700;2024-03-06T05:47:48;3.08;;;1.45;;
79583;SDS011;69053;57.338;18.700;2024-03-06T05:50:50;3.17;;;1.73;;
79583;SDS011;69053;57.338;18.700;2024-03-06T05:53:50;4.03;;;1.23;;
79583;SDS011;69053;57.338;18.700;2024-03-06T05:56:51;4.65;;;1.67;;
79583;SDS011;69053;57.338;18.700;2024-03-06T05:59:52;5.43;;;1.48;;
79583;SDS011;69053;57.338;18.700;2024-03-06T06:02:52;4.25;;;1.30;;
79583;SDS011;69053;57.338;18.700;2024-03-06T06:05:52;4.85;;;2.35;;
79583;SDS011;69053;57.338;18.700;2024-03-06T06:08:53;5.90;;;1.52;;
79583;SDS011;69053;57.338;18.700;2024-03-06T06:11:54;4.20;;;1.45;;
79583;SDS011;69053;57.338;18.700;2024-03-06T06:14:54;3.35;;;2.03;;
79583;SDS011;69053;57.338;18.700;2024-03-06T06:17:55;3.08;;;1.30;;
79583;SDS011;69053;57.338;18.700;2024-03-06T06:20:55;2.00;;;1.23;;
79583;SDS011;69053;57.338;18.700;2024-03-06T06:23:55;6.28;;;1.45;;
79583;SDS011;69053;57.338;18.700;2024-03-06T06:26:56;4.78;;;1.23;;
79583;SDS011;69053;57.338;18.700;2024-03-06T06:29:56;5.10;;;1.35;;
79583;SDS011;69053;57.338;18.700;2024-03-06T06:32:58;3.40;;;1.30;;
79583;SDS011;69053;57.338;18.700;2024-03-06T06:35:58;3.53;;;1.30;;
79583;SDS011;69053;57.338;18.700;2024-03-06T06:38:58;4.15;;;1.70;;
79583;SDS011;69053;57.338;18.700;2024-03-06T06:41:59;1.38;;;0.93;;
79583;SDS011;69053;57.338;18.700;2024-03-06T06:44:59;4.75;;;1.70;;
79583;SDS011;69053;57.338;18.700;2024-03-06T06:48:00;3.97;;;1.33;;
79583;SDS011;69053;57.338;18.700;2024-03-06T06:51:01;3.92;;;1.83;;
79583;SDS011;69053;57.338;18.700;2024-03-06T06:54:02;6.47;;;1.63;;
79583;SDS011;69053;57.338;18.700;2024-03-06T06:57:04;4.30;;;1.80;;
79583;SDS011;69053;57.338;18.700;2024-03-06T07:00:05;4.47;;;1.38;;
79583;SDS011;69053;57.338;18.700;2024-03-06T07:03:13;3.10;;;1.38;;
79583;SDS011;69053;57.338;18.700;2024-03-06T07:06:13;4.75;;;1.63;;
79583;SDS011;69053;57.338;18.700;2024-03-06T07:09:13;2.38;;;1.08;;
79583;SDS011;69053;57.338;18.700;2024-03-06T07:12:15;5.07;;;2.33;;
79583;SDS011;69053;57.338;18.700;2024-03-06T07:15:16;4.28;;;1.70;;
79583;SDS011;69053;57.338;18.700;2024-03-06T07:18:16;4.40;;;1.00;;
79583;SDS011;69053;57.338;18.700;2024-03-06T07:21:17;3.92;;;1.40;;
79583;SDS011;69053;57.338;18.700;2024-03-06T07:24:18;3.85;;;1.75;;
79583;SDS011;69053;57.338;18.700;2024-03-06T07:27:18;2.38;;;1.40;;
79583;SDS011;69053;57.338;18.700;2024-03-06T07:30:19;3.10;;;1.33;;
79583;SDS011;69053;57.338;18.700;2024-03-06T07:33:20;5.18;;;1.67;;
79583;SDS011;69053;57.338;18.700;2024-03-06T07:36:20;3.78;;;1.35;;
79583;SDS011;69053;57.338;18.700;2024-03-06T07:39:21;3.92;;;1.48;;
79583;SDS011;69053;57.338;18.700;2024-03-06T07:42:22;3.25;;;1.35;;
79583;SDS011;69053;57.338;18.700;2024-03-06T07:45:22;4.80;;;1.38;;
79583;SDS011;69053;57.338;18.700;2024-03-06T07:48:23;5.28;;;1.67;;
79583;SDS011;69053;57.338;18.700;2024-03-06T07:51:23;4.78;;;1.75;;
79583;SDS011;69053;57.338;18.700;2024-03-06T07:54:24;5.68;;;1.17;;
79583;SDS011;69053;57.338;18.700;2024-03-06T07:57:24;4.45;;;1.55;;
79583;SDS011;69053;57.338;18.700;2024-03-06T08:00:25;4.47;;;1.73;;
79583;SDS011;69053;57.338;18.700;2024-03-06T08:03:27;2.60;;;1.35;;
79583;SDS011;69053;57.338;18.700;2024-03-06T08:06:27;4.65;;;1.60;;
79583;SDS011;69053;57.338;18.700;2024-03-06T08:09:29;4.85;;;1.23;;
79583;SDS011;69053;57.338;18.700;2024-03-06T08:12:29;4.45;;;1.20;;
79583;SDS011;69053;57.338;18.700;2024-03-06T08:15:30;4.13;;;1.80;;
79583;SDS011;69053;57.338;18.700;2024-03-06T08:18:30;5.07;;;1.40;;
79583;SDS011;69053;57.338;18.700;2024-03-06T08:21:32;2.30;;;1.25;;
79583;SDS011;69053;57.338;18.700;2024-03-06T08:24:32;4.07;;;1.48;;
79583;SDS011;69053;57.338;18.700;2024-03-06T08:27:36;2.55;;;1.27;;
79583;SDS011;69053;57.338;18.700;2024-03-06T08:30:38;4.00;;;1.38;;
79583;SDS011;69053;57.338;18.700;2024-03-06T08:33:39;4.43;;;1.50;;
79583;SDS011;69053;57.338;18.700;2024-03-06T08:36:39;3.30;;;1.45;;
79583;SDS011;69053;57.338;18.700;2024-03-06T08:39:40;4.20;;;1.73;;
79583;SDS011;69053;57.338;18.700;2024-03-06T08:42:49;1.98;;;1.00;;
79583;SDS011;69053;57.338;18.700;2024-03-06T08:45:50;3.63;;;1.20;;
79583;SDS011;69053;57.338;18.700;2024-03-06T08:48:50;4.72;;;1.35;;
79583;SDS011;69053;57.338;18.700;2024-03-06T08:51:51;2.08;;;1.17;;
79583;SDS011;69053;57.338;18.700;2024-03-06T08:54:51;4.38;;;1.35;;
79583;SDS011;69053;57.338;18.700;2024-03-06T08:57:52;2.63;;;1.27;;
79583;SDS011;69053;57.338;18.700;2024-03-06T09:00:52;3.97;;;1.92;;
79583;SDS011;69053;57.338;18.700;2024-03-06T09:03:53;4.47;;;1.40;;
79583;SDS011;69053;57.338;18.700;2024-03-06T09:06:54;2.65;;;1.05;;
79583;SDS011;69053;57.338;18.700;2024-03-06T09:09:54;4.40;;;1.50;;
79583;SDS011;69053;57.338;18.700;2024-03-06T09:12:55;2.70;;;1.30;;
79583;SDS011;69053;57.338;18.700;2024-03-06T09:15:55;2.42;;;1.33;;
79583;SDS011;69053;57.338;18.700;2024-03-06T09:18:56;5.80;;;1.80;;
79583;SDS011;69053;57.338;18.700;2024-03-06T09:21:56;1.98;;;1.10;;
79583;SDS011;69053;57.338;18.700;2024-03-06T09:24:57;1.38;;;1.00;;
79583;SDS011;69053;57.338;18.700;2024-03-06T09:27:57;3.72;;;1.17;;
79583;SDS011;69053;57.338;18.700;2024-03-06T09:30:59;2.60;;;1.10;;
79583;SDS011;69053;57.338;18.700;2024-03-06T09:34:01;2.88;;;1.58;;
79583;SDS011;69053;57.338;18.700;2024-03-06T09:37:01;2.72;;;1.15;;
79583;SDS011;69053;57.338;18.700;2024-03-06T09:40:03;3.88;;;1.40;;
79583;SDS011;69053;57.338;18.700;2024-03-06T09:43:04;3.42;;;1.40;;
79583;SDS011;69053;57.338;18.700;2024-03-06T09:46:06;2.50;;;0.98;;
79583;SDS011;69053;57.338;18.700;2024-03-06T09:49:07;3.22;;;1.33;;
79583;SDS011;69053;57.338;18.700;2024-03-06T09:52:10;4.03;;;1.27;;
79583;SDS011;69053;57.338;18.700;2024-03-06T09:55:10;3.85;;;1.42;;
79583;SDS011;69053;57.338;18.700;2024-03-06T09:58:12;2.63;;;1.27;;
79583;SDS011;69053;57.338;18.700;2024-03-06T10:01:13;4.15;;;1.30;;
79583;SDS011;69053;57.338;18.700;2024-03-06T10:04:18;3.70;;;1.30;;
79583;SDS011;69053;57.338;18.700;2024-03-06T10:07:19;3.95;;;1.38;;
79583;SDS011;69053;57.338;18.700;2024-03-06T10:10:20;3.65;;;1.20;;
79583;SDS011;69053;57.338;18.700;2024-03-06T10:13:23;2.70;;;1.30;;
79583;SDS011;69053;57.338;18.700;2024-03-06T10:16:25;4.05;;;1.25;;
79583;SDS011;69053;57.338;18.700;2024-03-06T10:19:29;2.50;;;1.50;;
79583;SDS011;69053;57.338;18.700;2024-03-06T10:22:30;2.72;;;1.20;;
79583;SDS011;69053;57.338;18.700;2024-03-06T10:25:30;4.32;;;1.13;;
79583;SDS011;69053;57.338;18.700;2024-03-06T10:28:31;3.20;;;1.20;;
79583;SDS011;69053;57.338;18.700;2024-03-06T10:31:32;2.55;;;1.50;;
79583;SDS011;69053;57.338;18.700;2024-03-06T10:34:33;3.50;;;1.08;;
79583;SDS011;69053;57.338;18.700;2024-03-06T10:37:33;4.35;;;1.23;;
79583;SDS011;69053;57.338;18.700;2024-03-06T10:40:36;2.70;;;1.42;;
79583;SDS011;69053;57.338;18.700;2024-03-06T10:43:37;2.53;;;1.23;;
79583;SDS011;69053;57.338;18.700;2024-03-06T10:46:40;3.17;;;1.17;;
79583;SDS011;69053;57.338;18.700;2024-03-06T10:49:44;2.90;;;0.98;;
79583;SDS011;69053;57.338;18.700;2024-03-06T10:52:46;4.07;;;1.48;;
79583;SDS011;69053;57.338;18.700;2024-03-06T10:55:49;3.38;;;1.40;;
79583;SDS011;69053;57.338;18.700;2024-03-06T10:58:50;2.67;;;1.20;;
79583;SDS011;69053;57.338;18.700;2024-03-06T11:01:55;3.45;;;1.40;;
79583;SDS011;69053;57.338;18.700;2024-03-06T11:04:56;3.85;;;1.20;;
79583;SDS011;69053;57.338;18.700;2024-03-06T11:07:58;2.50;;;1.23;;
79583;SDS011;69053;57.338;18.700;2024-03-06T11:14:23;4.03;;;1.23;;
79583;SDS011;69053;57.338;18.700;2024-03-06T11:17:27;3.78;;;1.17;;
79583;SDS011;69053;57.338;18.700;2024-03-06T11:20:31;3.25;;;1.20;;
79583;SDS011;69053;57.338;18.700;2024-03-06T11:26:35;4.38;;;1.42;;
79583;SDS011;69053;57.338;18.700;2024-03-06T11:33:12;3.15;;;1.02;;
79583;SDS011;69053;57.338;18.700;2024-03-06T11:36:23;3.42;;;1.38;;
79583;SDS011;69053;57.338;18.700;2024-03-06T11:39:28;3.35;;;1.10;;
79583;SDS011;69053;57.338;18.700;2024-03-06T11:42:33;2.65;;;1.17;;
79583;SDS011;69053;57.338;18.700;2024-03-06T11:45:45;3.53;;;1.30;;
79583;SDS011;69053;57.338;18.700;2024-03-06T11:48:53;1.85;;;1.00;;
79583;SDS011;69053;57.338;18.700;2024-03-06T11:51:56;2.58;;;1.30;;
79583;SDS011;69053;57.338;18.700;2024-03-06T11:55:05;1.50;;;0.75;;
79583;SDS011;69053;57.338;18.700;2024-03-06T11:58:05;2.70;;;0.98;;
79583;SDS011;69053;57.338;18.700;2024-03-06T12:01:08;2.33;;;0.82;;
79583;SDS011;69053;57.338;18.700;2024-03-06T12:04:09;5.05;;;1.52;;
79583;SDS011;69053;57.338;18.700;2024-03-06T12:07:09;2.47;;;1.23;;
79583;SDS011;69053;57.338;18.700;2024-03-06T12:10:10;2.70;;;1.23;;
79583;SDS011;69053;57.338;18.700;2024-03-06T12:13:11;2.17;;;1.20;;
79583;SDS011;69053;57.338;18.700;2024-03-06T12:16:11;2.28;;;1.17;;
79583;SDS011;69053;57.338;18.700;2024-03-06T12:19:12;4.68;;;1.23;;
79583;SDS011;69053;57.338;18.700;2024-03-06T12:22:12;2.33;;;0.90;;
79583;SDS011;69053;57.338;18.700;2024-03-06T12:25:33;2.58;;;1.02;;
79583;SDS011;69053;57.338;18.700;2024-03-06T12:28:33;3.05;;;1.00;;
79583;SDS011;69053;57.338;18.700;2024-03-06T12:31:34;1.98;;;0.90;;
79583;SDS011;69053;57.338;18.700;2024-03-06T12:34:36;2.97;;;1.38;;
79583;SDS011;69053;57.338;18.700;2024-03-06T12:37:36;5.00;;;1.25;;
79583;SDS011;69053;57.338;18.700;2024-03-06T12:40:37;2.70;;;0.90;;
79583;SDS011;69053;57.338;18.700;2024-03-06T12:43:38;2.97;;;1.60;;
79583;SDS011;69053;57.338;18.700;2024-03-06T12:46:38;2.63;;;1.10;;
79583;SDS011;69053;57.338;18.700;2024-03-06T12:49:38;2.03;;;0.90;;
79583;SDS011;69053;57.338;18.700;2024-03-06T12:52:39;2.83;;;1.00;;
79583;SDS011;69053;57.338;18.700;2024-03-06T12:55:40;1.58;;;0.90;;
79583;SDS011;69053;57.338;18.700;2024-03-06T12:58:43;3.42;;;1.00;;
79583;SDS011;69053;57.338;18.700;2024-03-06T13:01:43;2.33;;;1.10;;
79583;SDS011;69053;57.338;18.700;2024-03-06T13:04:44;1.20;;;0.80;;
79583;SDS011;69053;57.338;18.700;2024-03-06T13:07:45;2.38;;;0.90;;
79583;SDS011;69053;57.338;18.700;2024-03-06T13:10:45;2.88;;;0.90;;
79583;SDS011;69053;57.338;18.700;2024-03-06T13:13:46;1.75;;;0.93;;
79583;SDS011;69053;57.338;18.700;2024-03-06T13:16:47;2.13;;;0.82;;
79583;SDS011;69053;57.338;18.700;2024-03-06T13:19:47;1.55;;;1.02;;
79583;SDS011;69053;57.338;18.700;2024-03-06T13:22:48;1.50;;;0.82;;
79583;SDS011;69053;57.338;18.700;2024-03-06T13:25:48;2.53;;;1.17;;
79583;SDS011;69053;57.338;18.700;2024-03-06T13:28:49;3.22;;;1.20;;
79583;SDS011;69053;57.338;18.700;2024-03-06T13:31:49;2.00;;;0.90;;
79583;SDS011;69053;57.338;18.700;2024-03-06T13:34:50;1.95;;;1.10;;
79583;SDS011;69053;57.338;18.700;2024-03-06T13:37:50;3.00;;;0.80;;
79583;SDS011;69053;57.338;18.700;2024-03-06T13:40:51;3.70;;;1.00;;
79583;SDS011;69053;57.338;18.700;2024-03-06T13:43:51;1.70;;;0.82;;
79583;SDS011;69053;57.338;18.700;2024-03-06T13:46:52;2.30;;;1.08;;
79583;SDS011;69053;57.338;18.700;2024-03-06T13:49:52;1.83;;;0.82;;
79583;SDS011;69053;57.338;18.700;2024-03-06T13:52:53;2.78;;;1.17;;
79583;SDS011;69053;57.338;18.700;2024-03-06T13:55:53;3.63;;;1.10;;
79583;SDS011;69053;57.338;18.700;2024-03-06T13:58:54;2.72;;;1.08;;
79583;SDS011;69053;57.338;18.700;2024-03-06T14:01:54;2.78;;;1.20;;
79583;SDS011;69053;57.338;18.700;2024-03-06T14:04:55;2.65;;;1.10;;
79583;SDS011;69053;57.338;18.700;2024-03-06T14:07:56;2.15;;;0.80;;
79583;SDS011;69053;57.338;18.700;2024-03-06T14:10:56;2.88;;;1.10;;
79583;SDS011;69053;57.338;18.700;2024-03-06T14:13:57;3.40;;;1.20;;
79583;SDS011;69053;57.338;18.700;2024-03-06T14:16:58;1.95;;;0.98;;
79583;SDS011;69053;57.338;18.700;2024-03-06T14:19:58;0.98;;;0.70;;
79583;SDS011;69053;57.338;18.700;2024-03-06T14:22:59;2.38;;;0.60;;
79583;SDS011;69053;57.338;18.700;2024-03-06T14:25:59;2.17;;;1.05;;
79583;SDS011;69053;57.338;18.700;2024-03-06T14:29:01;5.25;;;1.27;;
79583;SDS011;69053;57.338;18.700;2024-03-06T14:32:02;2.13;;;0.90;;
79583;SDS011;69053;57.338;18.700;2024-03-06T14:35:03;3.55;;;1.00;;
79583;SDS011;69053;57.338;18.700;2024-03-06T14:38:04;2.25;;;0.82;;
79583;SDS011;69053;57.338;18.700;2024-03-06T14:41:04;2.45;;;1.20;;
79583;SDS011;69053;57.338;18.700;2024-03-06T14:44:06;2.45;;;0.82;;
79583;SDS011;69053;57.338;18.700;2024-03-06T14:47:06;1.88;;;0.80;;
79583;SDS011;69053;57.338;18.700;2024-03-06T14:50:07;3.78;;;0.85;;
79583;SDS011;69053;57.338;18.700;2024-03-06T14:53:07;0.90;;;0.57;;
79583;SDS011;69053;57.338;18.700;2024-03-06T14:56:08;2.75;;;0.70;;
79583;SDS011;69053;57.338;18.700;2024-03-06T14:59:10;2.60;;;0.90;;
79583;SDS011;69053;57.338;18.700;2024-03-06T15:02:11;2.78;;;0.90;;
79583;SDS011;69053;57.338;18.700;2024-03-06T15:05:13;2.70;;;0.80;;
79583;SDS011;69053;57.338;18.700;2024-03-06T15:08:13;2.63;;;0.80;;
79583;SDS011;69053;57.338;18.700;2024-03-06T15:11:14;1.08;;;0.70;;
79583;SDS011;69053;57.338;18.700;2024-03-06T15:14:15;2.83;;;1.20;;
79583;SDS011;69053;57.338;18.700;2024-03-06T15:17:15;1.75;;;0.80;;
79583;SDS011;69053;57.338;18.700;2024-03-06T15:20:15;2.88;;;0.82;;
79583;SDS011;69053;57.338;18.700;2024-03-06T15:23:16;2.28;;;1.35;;
79583;SDS011;69053;57.338;18.700;2024-03-06T15:26:17;3.40;;;1.27;;
79583;SDS011;69053;57.338;18.700;2024-03-06T15:29:18;1.90;;;0.57;;
79583;SDS011;69053;57.338;18.700;2024-03-06T15:32:18;1.50;;;0.80;;
79583;SDS011;69053;57.338;18.700;2024-03-06T15:35:19;3.85;;;1.10;;
79583;SDS011;69053;57.338;18.700;2024-03-06T15:38:19;3.17;;;0.68;;
79583;SDS011;69053;57.338;18.700;2024-03-06T15:41:20;3.97;;;1.30;;
79583;SDS011;69053;57.338;18.700;2024-03-06T15:44:20;2.38;;;0.70;;
79583;SDS011;69053;57.338;18.700;2024-03-06T15:47:21;2.90;;;0.90;;
79583;SDS011;69053;57.338;18.700;2024-03-06T15:50:21;1.75;;;0.85;;
79583;SDS011;69053;57.338;18.700;2024-03-06T15:53:22;2.45;;;0.98;;
79583;SDS011;69053;57.338;18.700;2024-03-06T15:56:28;2.65;;;0.75;;
79583;SDS011;69053;57.338;18.700;2024-03-06T15:59:28;1.20;;;0.75;;
79583;SDS011;69053;57.338;18.700;2024-03-06T16:02:29;3.83;;;0.70;;
79583;SDS011;69053;57.338;18.700;2024-03-06T16:05:29;5.35;;;1.13;;
79583;SDS011;69053;57.338;18.700;2024-03-06T16:08:30;4.15;;;0.93;;
79583;SDS011;69053;57.338;18.700;2024-03-06T16:11:31;3.13;;;0.85;;
79583;SDS011;69053;57.338;18.700;2024-03-06T16:14:31;5.03;;;1.00;;
79583;SDS011;69053;57.338;18.700;2024-03-06T16:17:32;3.75;;;0.70;;
79583;SDS011;69053;57.338;18.700;2024-03-06T16:20:34;3.60;;;1.10;;
79583;SDS011;69053;57.338;18.700;2024-03-06T16:23:35;2.00;;;1.08;;
79583;SDS011;69053;57.338;18.700;2024-03-06T16:26:35;1.70;;;0.63;;
79583;SDS011;69053;57.338;18.700;2024-03-06T16:29:36;3.22;;;0.90;;
79583;SDS011;69053;57.338;18.700;2024-03-06T16:32:37;3.05;;;1.25;;
79583;SDS011;69053;57.338;18.700;2024-03-06T16:35:38;4.05;;;0.60;;
79583;SDS011;69053;57.338;18.700;2024-03-06T16:38:38;1.55;;;0.80;;
79583;SDS011;69053;57.338;18.700;2024-03-06T16:41:42;6.25;;;1.67;;
79583;SDS011;69053;57.338;18.700;2024-03-06T16:44:43;4.95;;;1.23;;
79583;SDS011;69053;57.338;18.700;2024-03-06T16:47:43;2.00;;;0.70;;
79583;SDS011;69053;57.338;18.700;2024-03-06T16:50:44;2.88;;;1.10;;
79583;SDS011;69053;57.338;18.700;2024-03-06T16:53:44;1.77;;;0.85;;
79583;SDS011;69053;57.338;18.700;2024-03-06T16:56:44;2.20;;;0.88;;
79583;SDS011;69053;57.338;18.700;2024-03-06T16:59:45;2.17;;;0.80;;
79583;SDS011;69053;57.338;18.700;2024-03-06T17:02:45;3.80;;;1.02;;
79583;SDS011;69053;57.338;18.700;2024-03-06T17:05:46;4.30;;;1.60;;
79583;SDS011;69053;57.338;18.700;2024-03-06T17:08:46;2.35;;;0.93;;
79583;SDS011;69053;57.338;18.700;2024-03-06T17:11:47;2.40;;;0.93;;
79583;SDS011;69053;57.338;18.700;2024-03-06T17:14:47;2.85;;;0.95;;
79583;SDS011;69053;57.338;18.700;2024-03-06T17:17:48;2.63;;;0.95;;
79583;SDS011;69053;57.338;18.700;2024-03-06T17:20:48;4.55;;;0.68;;
79583;SDS011;69053;57.338;18.700;2024-03-06T17:23:49;2.85;;;0.85;;
79583;SDS011;69053;57.338;18.700;2024-03-06T17:26:51;2.00;;;1.10;;
79583;SDS011;69053;57.338;18.700;2024-03-06T17:29:52;2.88;;;1.05;;
79583;SDS011;69053;57.338;18.700;2024-03-06T17:32:52;2.88;;;1.00;;
79583;SDS011;69053;57.338;18.700;2024-03-06T17:35:55;6.38;;;3.42;;
79583;SDS011;69053;57.338;18.700;2024-03-06T17:38:57;2.90;;;1.00;;
79583;SDS011;69053;57.338;18.700;2024-03-06T17:41:57;3.60;;;0.98;;
79583;SDS011;69053;57.338;18.700;2024-03-06T17:44:58;3.08;;;0.85;;
79583;SDS011;69053;57.338;18.700;2024-03-06T17:48:00;2.80;;;0.80;;
79583;SDS011;69053;57.338;18.700;2024-03-06T17:51:00;4.32;;;1.25;;
79583;SDS011;69053;57.338;18.700;2024-03-06T17:54:01;1.58;;;0.73;;
79583;SDS011;69053;57.338;18.700;2024-03-06T17:57:02;2.83;;;1.13;;
79583;SDS011;69053;57.338;18.700;2024-03-06T18:00:03;1.95;;;1.05;;
79583;SDS011;69053;57.338;18.700;2024-03-06T18:03:09;2.58;;;0.75;;